createdAt,value
2022-12-08T00:01:40.270Z,2.77
2022-12-08T00:07:02.595Z,2.79
2022-12-08T00:12:08.275Z,2.80
2022-12-08T00:17:14.491Z,2.79
2022-12-08T00:22:17.373Z,2.78
2022-12-08T00:27:20.125Z,2.74
2022-12-08T00:32:24.879Z,2.75
2022-12-08T00:37:27.722Z,2.76
2022-12-08T00:42:30.445Z,2.75
2022-12-08T00:47:34.520Z,2.77
2022-12-08T00:52:37.547Z,2.75
2022-12-08T00:57:40.305Z,2.78
2022-12-08T01:02:44.640Z,2.75
2022-12-08T01:07:49.000Z,2.75
2022-12-08T01:12:51.756Z,2.72
2022-12-08T01:17:55.832Z,2.72
2022-12-08T01:22:58.540Z,2.72
2022-12-08T01:28:01.256Z,2.66
2022-12-08T01:33:05.447Z,2.69
2022-12-08T01:38:08.210Z,2.68
2022-12-08T01:43:15.405Z,2.70
2022-12-08T01:48:23.881Z,2.68
2022-12-08T01:53:29.333Z,2.68
2022-12-08T01:58:36.549Z,2.68
2022-12-08T02:03:45.231Z,2.69
2022-12-08T02:08:49.837Z,2.63
2022-12-08T02:13:54.133Z,2.65
2022-12-08T02:19:30.797Z,2.65
2022-12-08T02:24:39.927Z,2.63
2022-12-08T02:30:16.043Z,2.65
2022-12-08T02:35:28.909Z,2.65
2022-12-08T02:40:37.902Z,2.65
2022-12-08T02:45:45.424Z,2.65
2022-12-08T02:50:49.617Z,2.66
2022-12-08T02:56:01.554Z,2.67
2022-12-08T03:01:19.480Z,2.66
2022-12-08T03:06:32.683Z,2.65
2022-12-08T03:11:42.863Z,2.67
2022-12-08T03:16:49.769Z,2.66
2022-12-08T03:22:02.647Z,2.71
2022-12-08T03:27:09.033Z,2.69
2022-12-08T03:32:19.534Z,2.67
2022-12-08T03:37:23.790Z,2.67
2022-12-08T03:42:26.573Z,2.66
2022-12-08T03:47:29.297Z,2.69
2022-12-08T03:52:33.397Z,2.66
2022-12-08T03:57:36.231Z,2.67
2022-12-08T04:02:39.000Z,2.67
2022-12-08T04:07:43.589Z,2.65
2022-12-08T04:12:46.388Z,2.66
2022-12-08T04:17:49.201Z,2.66
2022-12-08T04:22:53.498Z,2.67
2022-12-08T04:27:56.603Z,2.69
2022-12-08T04:32:59.442Z,2.67
2022-12-08T04:38:04.090Z,2.68
2022-12-08T04:43:06.809Z,2.66
2022-12-08T04:48:10.101Z,2.69
2022-12-08T04:53:14.637Z,2.69
2022-12-08T04:58:19.406Z,2.67
2022-12-08T05:03:28.255Z,2.69
2022-12-08T05:08:33.420Z,2.67
2022-12-08T05:13:36.298Z,2.67
2022-12-08T05:18:40.036Z,2.68
2022-12-08T05:23:44.131Z,2.69
2022-12-08T05:28:47.913Z,2.71
2022-12-08T05:33:52.072Z,2.72
2022-12-08T05:38:57.649Z,2.70
2022-12-08T05:44:00.453Z,2.70
2022-12-08T05:49:04.586Z,2.71
2022-12-08T05:54:08.803Z,2.70
2022-12-08T05:59:11.562Z,2.72
2022-12-08T06:04:14.349Z,2.72
2022-12-08T06:09:18.514Z,2.73
2022-12-08T06:14:21.381Z,2.72
2022-12-08T06:19:24.168Z,2.68
2022-12-08T06:24:28.538Z,2.69
2022-12-08T06:29:31.320Z,2.69
2022-12-08T06:34:34.121Z,2.68
2022-12-08T06:39:38.349Z,2.67
2022-12-08T06:44:41.374Z,2.68
2022-12-08T06:49:44.319Z,2.69
2022-12-08T06:54:48.373Z,2.70
2022-12-08T06:59:51.232Z,2.72
2022-12-08T07:04:54.034Z,2.74
2022-12-08T07:09:58.176Z,2.75
2022-12-08T07:15:02.013Z,2.75
2022-12-08T07:20:06.369Z,2.76
2022-12-08T07:25:11.078Z,2.72
2022-12-08T07:30:15.510Z,2.73
2022-12-08T07:35:18.378Z,2.74
2022-12-08T07:40:22.696Z,2.79
2022-12-08T07:45:31.266Z,2.80
2022-12-08T07:50:35.365Z,2.84
2022-12-08T07:55:41.675Z,2.88
2022-12-08T08:00:44.457Z,2.90
2022-12-08T08:05:49.205Z,2.89
2022-12-08T08:10:53.340Z,2.90
2022-12-08T08:16:03.818Z,2.91
2022-12-08T08:21:43.363Z,2.93
2022-12-08T08:26:31.592Z,2.96
2022-12-08T08:31:34.692Z,2.97
2022-12-08T08:36:37.996Z,2.99
2022-12-08T08:41:42.152Z,3.05
2022-12-08T08:46:45.255Z,3.06
2022-12-08T08:51:48.252Z,3.15
2022-12-08T08:56:52.685Z,3.20
2022-12-08T09:01:56.141Z,3.22
2022-12-08T09:06:59.407Z,3.25
2022-12-08T09:12:03.689Z,3.26
2022-12-08T09:17:08.434Z,3.32
2022-12-08T09:22:11.152Z,3.50
2022-12-08T09:27:15.420Z,3.45
2022-12-08T09:32:19.006Z,3.54
2022-12-08T09:37:22.785Z,3.60
2022-12-08T09:42:34.745Z,3.64
2022-12-08T09:47:42.689Z,3.66
2022-12-08T09:52:51.117Z,3.78
2022-12-08T09:58:03.680Z,3.91
2022-12-08T10:03:16.411Z,3.96
2022-12-08T10:08:22.188Z,3.97
2022-12-08T10:13:36.457Z,3.89
2022-12-08T10:18:39.725Z,3.89
2022-12-08T10:23:45.705Z,3.93
2022-12-08T10:28:50.453Z,4.12
2022-12-08T10:33:58.296Z,4.21
2022-12-08T10:39:02.416Z,4.17
2022-12-08T10:44:07.190Z,4.17
2022-12-08T10:49:13.088Z,4.35
2022-12-08T10:54:29.102Z,4.58
2022-12-08T10:59:34.580Z,4.55
2022-12-08T11:04:39.199Z,4.68
2022-12-08T11:09:48.433Z,4.88
2022-12-08T11:14:58.966Z,4.83
2022-12-08T11:20:06.680Z,4.71
2022-12-08T11:25:13.146Z,4.56
2022-12-08T11:30:20.926Z,4.22
2022-12-08T11:35:27.988Z,4.26
2022-12-08T11:40:36.785Z,4.31
2022-12-08T11:45:42.551Z,4.47
2022-12-08T11:50:50.636Z,4.76
2022-12-08T11:55:58.143Z,4.71
2022-12-08T12:01:02.791Z,4.53
2022-12-08T12:06:57.567Z,4.61
2022-12-08T12:12:16.908Z,4.50
2022-12-08T12:17:42.607Z,4.49
2022-12-08T12:22:49.584Z,4.56
2022-12-08T12:27:57.604Z,4.56
2022-12-08T12:33:03.087Z,4.51
2022-12-08T12:38:29.281Z,4.53
2022-12-08T12:43:34.867Z,4.50
2022-12-08T12:48:38.999Z,4.52
2022-12-08T12:53:51.013Z,4.58
2022-12-08T12:58:55.618Z,4.63
2022-12-08T13:04:07.689Z,4.58
2022-12-08T13:09:23.026Z,4.80
2022-12-08T13:14:30.164Z,4.92
2022-12-08T13:19:36.663Z,4.82
2022-12-08T13:24:39.604Z,4.66
2022-12-08T13:29:42.518Z,4.59
2022-12-08T13:34:52.460Z,4.51
2022-12-08T13:39:59.857Z,4.47
2022-12-08T13:45:48.525Z,4.36
2022-12-08T13:52:33.042Z,4.34
2022-12-08T14:01:25.695Z,4.22
2022-12-08T14:06:32.533Z,4.10
2022-12-08T14:11:38.121Z,3.99
2022-12-08T14:16:42.674Z,4.01
2022-12-08T14:21:54.663Z,3.93
2022-12-08T14:27:00.380Z,3.83
2022-12-08T14:32:03.096Z,3.78
2022-12-08T14:37:12.664Z,3.76
2022-12-08T14:42:23.830Z,3.74
2022-12-08T14:47:31.719Z,3.65
2022-12-08T14:52:35.928Z,3.52
2022-12-08T14:57:38.825Z,3.47
2022-12-08T15:02:47.682Z,3.40
2022-12-08T15:07:53.892Z,3.34
2022-12-08T15:13:03.618Z,3.27
2022-12-08T15:18:13.798Z,3.26
2022-12-08T15:23:41.729Z,3.22
2022-12-08T15:28:44.530Z,3.17
2022-12-08T15:33:47.400Z,3.15
2022-12-08T15:38:51.472Z,3.10
2022-12-08T15:43:54.281Z,3.06
2022-12-08T15:48:58.351Z,3.03
2022-12-08T15:54:02.665Z,3.01
2022-12-08T15:59:06.412Z,2.96
2022-12-08T16:04:47.355Z,2.96
2022-12-08T16:09:38.366Z,2.96
2022-12-08T16:20:12.465Z,2.89
2022-12-08T16:25:19.317Z,2.87
2022-12-08T16:30:23.279Z,2.86
2022-12-08T16:35:26.009Z,2.82
2022-12-08T16:40:30.758Z,2.81
2022-12-08T16:45:40.055Z,2.82
2022-12-08T16:50:47.505Z,2.83
2022-12-08T16:55:51.979Z,2.80
2022-12-08T17:00:54.889Z,2.80
2022-12-08T17:05:57.696Z,2.81
2022-12-08T17:11:08.742Z,2.79
2022-12-08T17:16:15.083Z,2.74
2022-12-08T17:21:19.034Z,2.75
2022-12-08T17:26:23.209Z,2.71
2022-12-08T17:31:29.617Z,2.66
2022-12-08T17:36:33.476Z,2.64
2022-12-08T17:41:37.563Z,2.59
2022-12-08T17:46:43.391Z,2.52
2022-12-08T17:51:49.283Z,2.49
2022-12-08T17:56:54.019Z,2.47
2022-12-08T18:01:57.981Z,2.41
2022-12-08T18:07:01.516Z,2.38
2022-12-08T18:12:06.223Z,2.35
2022-12-08T18:17:09.120Z,2.33
2022-12-08T18:22:12.274Z,2.29
2022-12-08T18:27:16.783Z,2.21
2022-12-08T18:32:23.485Z,2.19
2022-12-08T18:37:26.363Z,2.16
2022-12-08T18:42:30.500Z,2.17
2022-12-08T18:47:34.964Z,2.16
2022-12-08T18:52:37.758Z,2.14
2022-12-08T18:57:43.742Z,2.13
2022-12-08T19:02:46.553Z,2.17
2022-12-08T19:07:49.558Z,2.16
2022-12-08T19:12:54.742Z,2.16
2022-12-08T19:17:57.541Z,2.15
2022-12-08T19:23:00.472Z,2.13
2022-12-08T19:28:04.729Z,2.12
2022-12-08T19:33:07.549Z,2.09
2022-12-08T19:38:10.320Z,2.10
2022-12-08T19:43:35.544Z,2.06
2022-12-08T19:48:38.308Z,2.05
2022-12-08T19:53:47.341Z,2.05
2022-12-08T19:58:52.387Z,2.04
2022-12-08T20:03:55.177Z,2.01
2022-12-08T20:08:57.988Z,2.01
2022-12-08T20:14:02.114Z,2.03
2022-12-08T20:19:05.829Z,2.00
2022-12-08T20:24:08.969Z,2.02
2022-12-08T20:29:16.924Z,1.97
2022-12-08T20:34:20.545Z,2.00
2022-12-08T20:39:23.355Z,2.00
2022-12-08T20:44:29.260Z,1.99
2022-12-08T20:49:34.803Z,1.94
2022-12-08T20:54:38.609Z,1.91
2022-12-08T20:59:43.012Z,1.90
2022-12-08T21:04:45.925Z,1.89
2022-12-08T21:09:48.842Z,1.89
2022-12-08T21:14:53.100Z,1.88
2022-12-08T21:19:55.821Z,1.88
2022-12-08T21:24:58.837Z,1.87
2022-12-08T21:30:03.179Z,1.86
2022-12-08T21:35:07.676Z,1.85
2022-12-08T21:40:12.136Z,1.83
2022-12-08T21:45:18.123Z,1.83
2022-12-08T21:50:21.520Z,1.77
2022-12-08T21:55:24.462Z,1.79
2022-12-08T22:00:29.177Z,1.82
2022-12-08T22:05:32.151Z,1.79
2022-12-08T22:10:35.227Z,1.78
2022-12-08T22:15:39.362Z,1.80
2022-12-08T22:20:44.112Z,1.79
2022-12-08T22:25:56.911Z,1.79
2022-12-08T22:31:01.194Z,1.79
2022-12-08T22:36:10.704Z,1.77
2022-12-08T22:41:14.487Z,1.74
2022-12-08T22:46:20.542Z,1.71
2022-12-08T22:51:23.411Z,1.71
2022-12-08T22:56:26.117Z,1.71
2022-12-08T23:01:31.967Z,1.70
2022-12-08T23:06:35.003Z,1.71
2022-12-08T23:11:37.797Z,1.69
2022-12-08T23:16:42.326Z,1.68
2022-12-08T23:21:45.242Z,1.65
2022-12-08T23:26:48.036Z,1.67
2022-12-08T23:31:52.237Z,1.65
2022-12-08T23:36:55.210Z,1.59
2022-12-08T23:41:58.017Z,1.59
2022-12-08T23:47:02.333Z,1.59
2022-12-08T23:52:05.610Z,1.55
2022-12-08T23:57:09.194Z,1.58
